sensor_id;sensor_type;location;lat;lon;timestamp;temperature;humidity
53645;DHT22;39547;45.554;12.068;2024-02-14T00:01:07;7.30;92.10
53645;DHT22;39547;45.554;12.068;2024-02-14T00:07:11;7.30;92.10
53645;DHT22;39547;45.554;12.068;2024-02-14T00:13:12;7.20;92.20
53645;DHT22;39547;45.554;12.068;2024-02-14T00:19:14;7.20;92.30
53645;DHT22;39547;45.554;12.068;2024-02-14T00:25:16;7.20;92.20
53645;DHT22;39547;45.554;12.068;2024-02-14T00:31:17;7.20;92.20
53645;DHT22;39547;45.554;12.068;2024-02-14T00:37:20;7.10;92.20
53645;DHT22;39547;45.554;12.068;2024-02-14T00:43:21;7.10;92.30
53645;DHT22;39547;45.554;12.068;2024-02-14T00:49:22;7.10;92.30
53645;DHT22;39547;45.554;12.068;2024-02-14T00:55:24;7.10;92.20
53645;DHT22;39547;45.554;12.068;2024-02-14T01:01:25;7.00;92.00
53645;DHT22;39547;45.554;12.068;2024-02-14T01:07:27;6.90;91.90
53645;DHT22;39547;45.554;12.068;2024-02-14T01:13:28;6.80;92.00
53645;DHT22;39547;45.554;12.068;2024-02-14T01:19:30;6.80;92.10
53645;DHT22;39547;45.554;12.068;2024-02-14T01:25:32;6.80;92.10
53645;DHT22;39547;45.554;12.068;2024-02-14T01:31:34;6.70;92.10
53645;DHT22;39547;45.554;12.068;2024-02-14T01:37:35;6.70;92.00
53645;DHT22;39547;45.554;12.068;2024-02-14T01:43:37;6.70;92.00
53645;DHT22;39547;45.554;12.068;2024-02-14T01:49:39;6.70;92.10
53645;DHT22;39547;45.554;12.068;2024-02-14T01:55:43;6.60;92.00
53645;DHT22;39547;45.554;12.068;2024-02-14T02:01:46;6.60;92.00
53645;DHT22;39547;45.554;12.068;2024-02-14T02:07:47;6.60;92.10
53645;DHT22;39547;45.554;12.068;2024-02-14T02:13:49;6.60;92.00
53645;DHT22;39547;45.554;12.068;2024-02-14T02:19:53;6.50;92.10
53645;DHT22;39547;45.554;12.068;2024-02-14T02:25:55;6.50;92.00
53645;DHT22;39547;45.554;12.068;2024-02-14T02:31:57;6.50;92.00
53645;DHT22;39547;45.554;12.068;2024-02-14T02:37:58;6.40;92.00
53645;DHT22;39547;45.554;12.068;2024-02-14T02:44:00;6.40;92.00
53645;DHT22;39547;45.554;12.068;2024-02-14T02:50:03;6.30;91.90
53645;DHT22;39547;45.554;12.068;2024-02-14T02:56:05;6.30;92.00
53645;DHT22;39547;45.554;12.068;2024-02-14T03:02:07;6.30;92.00
53645;DHT22;39547;45.554;12.068;2024-02-14T03:08:10;6.30;92.10
53645;DHT22;39547;45.554;12.068;2024-02-14T03:14:16;6.30;92.10
53645;DHT22;39547;45.554;12.068;2024-02-14T03:20:18;6.30;92.10
53645;DHT22;39547;45.554;12.068;2024-02-14T03:26:20;6.20;92.10
53645;DHT22;39547;45.554;12.068;2024-02-14T03:32:22;6.20;92.00
53645;DHT22;39547;45.554;12.068;2024-02-14T03:38:28;6.20;91.80
53645;DHT22;39547;45.554;12.068;2024-02-14T03:44:30;6.10;92.00
53645;DHT22;39547;45.554;12.068;2024-02-14T03:50:33;6.10;92.10
53645;DHT22;39547;45.554;12.068;2024-02-14T03:56:34;6.00;92.20
53645;DHT22;39547;45.554;12.068;2024-02-14T04:02:36;6.00;92.10
53645;DHT22;39547;45.554;12.068;2024-02-14T04:08:37;6.00;92.00
53645;DHT22;39547;45.554;12.068;2024-02-14T04:14:39;5.90;92.00
53645;DHT22;39547;45.554;12.068;2024-02-14T04:20:41;5.90;91.90
53645;DHT22;39547;45.554;12.068;2024-02-14T04:26:42;5.80;92.00
53645;DHT22;39547;45.554;12.068;2024-02-14T04:32:44;5.80;92.00
53645;DHT22;39547;45.554;12.068;2024-02-14T04:38:46;5.80;92.10
53645;DHT22;39547;45.554;12.068;2024-02-14T04:44:48;5.70;92.10
53645;DHT22;39547;45.554;12.068;2024-02-14T04:50:50;5.70;92.10
53645;DHT22;39547;45.554;12.068;2024-02-14T04:56:51;5.70;92.30
53645;DHT22;39547;45.554;12.068;2024-02-14T05:02:53;5.70;92.20
53645;DHT22;39547;45.554;12.068;2024-02-14T05:08:54;5.70;92.30
53645;DHT22;39547;45.554;12.068;2024-02-14T05:14:56;5.70;92.40
53645;DHT22;39547;45.554;12.068;2024-02-14T05:20:57;5.70;92.30
53645;DHT22;39547;45.554;12.068;2024-02-14T05:27:00;5.70;92.30
53645;DHT22;39547;45.554;12.068;2024-02-14T05:33:02;5.70;92.10
53645;DHT22;39547;45.554;12.068;2024-02-14T05:39:04;5.70;92.10
53645;DHT22;39547;45.554;12.068;2024-02-14T05:45:09;5.60;92.10
53645;DHT22;39547;45.554;12.068;2024-02-14T05:51:11;5.60;92.10
53645;DHT22;39547;45.554;12.068;2024-02-14T05:57:12;5.60;92.20
53645;DHT22;39547;45.554;12.068;2024-02-14T06:03:14;5.50;92.10
53645;DHT22;39547;45.554;12.068;2024-02-14T06:09:15;5.50;92.10
53645;DHT22;39547;45.554;12.068;2024-02-14T06:15:17;5.50;92.00
53645;DHT22;39547;45.554;12.068;2024-02-14T06:21:18;5.40;92.20
53645;DHT22;39547;45.554;12.068;2024-02-14T06:27:20;5.40;92.20
53645;DHT22;39547;45.554;12.068;2024-02-14T06:33:22;5.40;92.20
53645;DHT22;39547;45.554;12.068;2024-02-14T06:39:23;5.40;92.40
53645;DHT22;39547;45.554;12.068;2024-02-14T06:45:26;5.50;92.50
53645;DHT22;39547;45.554;12.068;2024-02-14T06:51:28;5.50;92.70
53645;DHT22;39547;45.554;12.068;2024-02-14T06:57:31;5.60;92.90
53645;DHT22;39547;45.554;12.068;2024-02-14T07:03:33;5.70;93.10
53645;DHT22;39547;45.554;12.068;2024-02-14T07:09:34;5.80;93.20
53645;DHT22;39547;45.554;12.068;2024-02-14T07:15:42;5.90;93.50
53645;DHT22;39547;45.554;12.068;2024-02-14T07:21:43;6.10;93.60
53645;DHT22;39547;45.554;12.068;2024-02-14T07:27:45;6.20;93.80
53645;DHT22;39547;45.554;12.068;2024-02-14T07:33:49;6.40;94.00
53645;DHT22;39547;45.554;12.068;2024-02-14T07:39:54;6.60;94.20
53645;DHT22;39547;45.554;12.068;2024-02-14T07:45:56;6.70;94.20
53645;DHT22;39547;45.554;12.068;2024-02-14T07:51:57;6.90;94.50
53645;DHT22;39547;45.554;12.068;2024-02-14T07:57:59;7.10;94.60
53645;DHT22;39547;45.554;12.068;2024-02-14T08:04:01;7.20;94.80
53645;DHT22;39547;45.554;12.068;2024-02-14T08:10:03;7.40;95.00
53645;DHT22;39547;45.554;12.068;2024-02-14T08:16:06;7.60;95.00
53645;DHT22;39547;45.554;12.068;2024-02-14T08:22:08;7.90;94.90
53645;DHT22;39547;45.554;12.068;2024-02-14T08:28:10;8.10;94.70
53645;DHT22;39547;45.554;12.068;2024-02-14T08:34:12;8.30;94.20
53645;DHT22;39547;45.554;12.068;2024-02-14T08:40:15;8.40;94.10
53645;DHT22;39547;45.554;12.068;2024-02-14T08:46:17;8.60;94.00
53645;DHT22;39547;45.554;12.068;2024-02-14T08:52:19;8.70;93.70
53645;DHT22;39547;45.554;12.068;2024-02-14T08:58:22;8.80;93.40
53645;DHT22;39547;45.554;12.068;2024-02-14T09:04:25;8.90;93.60
53645;DHT22;39547;45.554;12.068;2024-02-14T09:10:28;9.10;93.40
53645;DHT22;39547;45.554;12.068;2024-02-14T09:16:30;9.20;93.90
53645;DHT22;39547;45.554;12.068;2024-02-14T09:22:34;9.30;93.80
53645;DHT22;39547;45.554;12.068;2024-02-14T09:28:36;9.50;94.10
53645;DHT22;39547;45.554;12.068;2024-02-14T09:34:37;9.60;94.20
53645;DHT22;39547;45.554;12.068;2024-02-14T09:40:41;9.70;94.10
53645;DHT22;39547;45.554;12.068;2024-02-14T09:46:43;9.90;94.40
53645;DHT22;39547;45.554;12.068;2024-02-14T09:52:46;10.00;94.00
53645;DHT22;39547;45.554;12.068;2024-02-14T09:58:50;10.10;94.30
53645;DHT22;39547;45.554;12.068;2024-02-14T10:04:57;10.20;94.00
53645;DHT22;39547;45.554;12.068;2024-02-14T10:10:59;10.30;93.30
53645;DHT22;39547;45.554;12.068;2024-02-14T10:17:01;10.50;93.80
53645;DHT22;39547;45.554;12.068;2024-02-14T10:23:03;10.70;93.80
53645;DHT22;39547;45.554;12.068;2024-02-14T10:29:06;10.80;93.80
53645;DHT22;39547;45.554;12.068;2024-02-14T10:35:10;11.00;93.70
53645;DHT22;39547;45.554;12.068;2024-02-14T10:41:13;11.10;93.60
53645;DHT22;39547;45.554;12.068;2024-02-14T10:47:16;11.20;93.60
53645;DHT22;39547;45.554;12.068;2024-02-14T10:53:20;11.40;93.10
53645;DHT22;39547;45.554;12.068;2024-02-14T10:59:23;11.60;92.70
53645;DHT22;39547;45.554;12.068;2024-02-14T11:05:25;11.70;91.90
53645;DHT22;39547;45.554;12.068;2024-02-14T11:11:30;11.90;91.60
53645;DHT22;39547;45.554;12.068;2024-02-14T11:17:34;12.00;90.80
53645;DHT22;39547;45.554;12.068;2024-02-14T11:23:35;12.10;89.80
53645;DHT22;39547;45.554;12.068;2024-02-14T11:29:39;12.10;90.30
53645;DHT22;39547;45.554;12.068;2024-02-14T11:35:42;12.20;89.10
53645;DHT22;39547;45.554;12.068;2024-02-14T11:41:44;12.30;89.80
53645;DHT22;39547;45.554;12.068;2024-02-14T11:47:46;12.50;89.10
53645;DHT22;39547;45.554;12.068;2024-02-14T11:53:47;12.60;89.90
53645;DHT22;39547;45.554;12.068;2024-02-14T11:59:49;12.70;89.40
53645;DHT22;39547;45.554;12.068;2024-02-14T12:05:54;12.80;89.10
53645;DHT22;39547;45.554;12.068;2024-02-14T12:11:57;13.00;89.40
53645;DHT22;39547;45.554;12.068;2024-02-14T12:17:58;13.10;89.20
53645;DHT22;39547;45.554;12.068;2024-02-14T12:24:00;13.30;88.80
53645;DHT22;39547;45.554;12.068;2024-02-14T12:30:06;13.50;89.10
53645;DHT22;39547;45.554;12.068;2024-02-14T12:36:11;13.60;88.80
53645;DHT22;39547;45.554;12.068;2024-02-14T12:42:13;13.70;88.10
53645;DHT22;39547;45.554;12.068;2024-02-14T12:48:22;13.80;88.60
53645;DHT22;39547;45.554;12.068;2024-02-14T12:54:27;13.80;88.20
53645;DHT22;39547;45.554;12.068;2024-02-14T13:00:29;13.90;81.70
53645;DHT22;39547;45.554;12.068;2024-02-14T13:06:32;14.00;86.60
53645;DHT22;39547;45.554;12.068;2024-02-14T13:12:34;14.10;87.80
53645;DHT22;39547;45.554;12.068;2024-02-14T13:18:35;14.20;88.70
53645;DHT22;39547;45.554;12.068;2024-02-14T13:24:37;14.30;85.80
53645;DHT22;39547;45.554;12.068;2024-02-14T13:30:39;14.20;80.00
53645;DHT22;39547;45.554;12.068;2024-02-14T13:36:41;14.30;83.70
53645;DHT22;39547;45.554;12.068;2024-02-14T13:42:43;14.30;83.00
53645;DHT22;39547;45.554;12.068;2024-02-14T13:48:45;14.20;82.20
53645;DHT22;39547;45.554;12.068;2024-02-14T13:54:46;14.30;82.60
53645;DHT22;39547;45.554;12.068;2024-02-14T14:00:48;14.30;79.40
53645;DHT22;39547;45.554;12.068;2024-02-14T14:06:49;14.30;83.10
53645;DHT22;39547;45.554;12.068;2024-02-14T14:12:51;14.20;83.10
53645;DHT22;39547;45.554;12.068;2024-02-14T14:18:52;14.10;85.50
53645;DHT22;39547;45.554;12.068;2024-02-14T14:24:55;13.90;83.30
53645;DHT22;39547;45.554;12.068;2024-02-14T14:30:56;13.80;85.60
53645;DHT22;39547;45.554;12.068;2024-02-14T14:36:58;13.70;84.90
53645;DHT22;39547;45.554;12.068;2024-02-14T14:43:00;13.70;86.80
53645;DHT22;39547;45.554;12.068;2024-02-14T14:49:01;13.70;83.50
53645;DHT22;39547;45.554;12.068;2024-02-14T14:55:04;13.70;87.30
53645;DHT22;39547;45.554;12.068;2024-02-14T15:01:06;13.70;87.30
53645;DHT22;39547;45.554;12.068;2024-02-14T15:07:07;13.60;87.20
53645;DHT22;39547;45.554;12.068;2024-02-14T15:13:11;13.50;87.90
53645;DHT22;39547;45.554;12.068;2024-02-14T15:19:15;13.30;88.30
53645;DHT22;39547;45.554;12.068;2024-02-14T15:25:17;13.40;88.50
53645;DHT22;39547;45.554;12.068;2024-02-14T15:31:18;13.20;88.40
53645;DHT22;39547;45.554;12.068;2024-02-14T15:37:40;13.20;88.30
53645;DHT22;39547;45.554;12.068;2024-02-14T15:43:43;12.90;88.80
53645;DHT22;39547;45.554;12.068;2024-02-14T15:49:48;12.80;89.20
53645;DHT22;39547;45.554;12.068;2024-02-14T15:55:49;12.70;89.30
53645;DHT22;39547;45.554;12.068;2024-02-14T16:01:53;12.50;89.60
53645;DHT22;39547;45.554;12.068;2024-02-14T16:07:55;12.30;89.80
53645;DHT22;39547;45.554;12.068;2024-02-14T16:13:57;12.20;90.00
53645;DHT22;39547;45.554;12.068;2024-02-14T16:20:00;12.00;90.20
53645;DHT22;39547;45.554;12.068;2024-02-14T16:26:02;11.80;90.30
53645;DHT22;39547;45.554;12.068;2024-02-14T16:32:06;11.70;90.50
53645;DHT22;39547;45.554;12.068;2024-02-14T16:38:08;11.50;90.70
53645;DHT22;39547;45.554;12.068;2024-02-14T16:44:09;11.30;90.80
53645;DHT22;39547;45.554;12.068;2024-02-14T16:50:12;11.10;90.90
53645;DHT22;39547;45.554;12.068;2024-02-14T16:56:14;10.90;91.00
53645;DHT22;39547;45.554;12.068;2024-02-14T17:02:15;10.80;91.10
53645;DHT22;39547;45.554;12.068;2024-02-14T17:08:17;10.70;91.20
53645;DHT22;39547;45.554;12.068;2024-02-14T17:14:19;10.50;91.20
53645;DHT22;39547;45.554;12.068;2024-02-14T17:20:20;10.40;91.40
53645;DHT22;39547;45.554;12.068;2024-02-14T17:26:22;10.30;91.50
53645;DHT22;39547;45.554;12.068;2024-02-14T17:32:23;10.20;91.50
53645;DHT22;39547;45.554;12.068;2024-02-14T17:38:26;10.20;91.70
53645;DHT22;39547;45.554;12.068;2024-02-14T17:44:29;10.20;91.70
53645;DHT22;39547;45.554;12.068;2024-02-14T17:50:31;10.10;91.70
53645;DHT22;39547;45.554;12.068;2024-02-14T17:56:33;10.00;91.70
53645;DHT22;39547;45.554;12.068;2024-02-14T18:02:35;9.90;91.80
53645;DHT22;39547;45.554;12.068;2024-02-14T18:08:37;9.90;91.70
53645;DHT22;39547;45.554;12.068;2024-02-14T18:14:39;9.70;91.80
53645;DHT22;39547;45.554;12.068;2024-02-14T18:20:40;9.70;91.90
53645;DHT22;39547;45.554;12.068;2024-02-14T18:26:42;9.60;91.90
53645;DHT22;39547;45.554;12.068;2024-02-14T18:32:43;9.60;91.90
53645;DHT22;39547;45.554;12.068;2024-02-14T18:38:45;9.50;92.00
53645;DHT22;39547;45.554;12.068;2024-02-14T18:44:46;9.40;92.00
53645;DHT22;39547;45.554;12.068;2024-02-14T18:50:48;9.30;92.00
53645;DHT22;39547;45.554;12.068;2024-02-14T18:56:50;9.20;92.00
53645;DHT22;39547;45.554;12.068;2024-02-14T19:02:52;9.20;92.10
53645;DHT22;39547;45.554;12.068;2024-02-14T19:08:55;9.10;92.00
53645;DHT22;39547;45.554;12.068;2024-02-14T19:14:56;9.10;92.00
53645;DHT22;39547;45.554;12.068;2024-02-14T19:20:59;9.00;92.00
53645;DHT22;39547;45.554;12.068;2024-02-14T19:27:02;8.90;92.00
53645;DHT22;39547;45.554;12.068;2024-02-14T19:33:03;8.80;92.00
53645;DHT22;39547;45.554;12.068;2024-02-14T19:39:05;8.70;92.10
53645;DHT22;39547;45.554;12.068;2024-02-14T19:45:07;8.70;92.00
53645;DHT22;39547;45.554;12.068;2024-02-14T19:51:10;8.70;92.00
53645;DHT22;39547;45.554;12.068;2024-02-14T19:57:11;8.60;91.90
53645;DHT22;39547;45.554;12.068;2024-02-14T20:03:15;8.60;91.90
53645;DHT22;39547;45.554;12.068;2024-02-14T20:09:17;8.50;91.90
53645;DHT22;39547;45.554;12.068;2024-02-14T20:15:18;8.40;91.80
53645;DHT22;39547;45.554;12.068;2024-02-14T20:21:20;8.30;91.80
53645;DHT22;39547;45.554;12.068;2024-02-14T20:27:21;8.30;91.90
53645;DHT22;39547;45.554;12.068;2024-02-14T20:33:25;8.20;91.90
53645;DHT22;39547;45.554;12.068;2024-02-14T20:39:26;8.20;91.80
53645;DHT22;39547;45.554;12.068;2024-02-14T20:45:28;8.10;91.90
53645;DHT22;39547;45.554;12.068;2024-02-14T20:51:32;8.20;92.20
53645;DHT22;39547;45.554;12.068;2024-02-14T20:57:34;8.30;92.50
53645;DHT22;39547;45.554;12.068;2024-02-14T21:03:35;8.40;92.70
53645;DHT22;39547;45.554;12.068;2024-02-14T21:09:37;8.50;92.80
53645;DHT22;39547;45.554;12.068;2024-02-14T21:15:39;8.60;92.50
53645;DHT22;39547;45.554;12.068;2024-02-14T21:21:43;8.60;92.60
53645;DHT22;39547;45.554;12.068;2024-02-14T21:27:44;8.60;92.60
53645;DHT22;39547;45.554;12.068;2024-02-14T21:33:46;8.60;92.70
53645;DHT22;39547;45.554;12.068;2024-02-14T21:39:48;8.60;92.70
53645;DHT22;39547;45.554;12.068;2024-02-14T21:45:49;8.60;92.30
53645;DHT22;39547;45.554;12.068;2024-02-14T21:51:52;8.50;92.50
53645;DHT22;39547;45.554;12.068;2024-02-14T21:57:53;8.40;91.90
53645;DHT22;39547;45.554;12.068;2024-02-14T22:03:55;8.30;91.90
53645;DHT22;39547;45.554;12.068;2024-02-14T22:09:56;8.20;92.40
53645;DHT22;39547;45.554;12.068;2024-02-14T22:15:58;8.20;92.50
53645;DHT22;39547;45.554;12.068;2024-02-14T22:21:59;8.30;92.70
53645;DHT22;39547;45.554;12.068;2024-02-14T22:28:01;8.20;92.50
53645;DHT22;39547;45.554;12.068;2024-02-14T22:34:05;8.20;92.30
53645;DHT22;39547;45.554;12.068;2024-02-14T22:40:07;8.20;92.40
53645;DHT22;39547;45.554;12.068;2024-02-14T22:46:11;8.20;91.80
53645;DHT22;39547;45.554;12.068;2024-02-14T22:52:13;8.10;92.20
53645;DHT22;39547;45.554;12.068;2024-02-14T22:58:14;7.90;91.60
53645;DHT22;39547;45.554;12.068;2024-02-14T23:04:16;7.90;91.80
53645;DHT22;39547;45.554;12.068;2024-02-14T23:10:18;7.80;91.90
53645;DHT22;39547;45.554;12.068;2024-02-14T23:16:21;7.80;92.20
53645;DHT22;39547;45.554;12.068;2024-02-14T23:22:23;7.80;92.40
53645;DHT22;39547;45.554;12.068;2024-02-14T23:28:24;7.80;92.20
53645;DHT22;39547;45.554;12.068;2024-02-14T23:34:26;7.70;91.90
53645;DHT22;39547;45.554;12.068;2024-02-14T23:40:27;7.60;91.80
53645;DHT22;39547;45.554;12.068;2024-02-14T23:46:29;7.40;91.40
53645;DHT22;39547;45.554;12.068;2024-02-14T23:52:31;7.30;91.60
53645;DHT22;39547;45.554;12.068;2024-02-14T23:58:35;7.20;91.90
